sensor_id;sensor_type;location;lat;lon;timestamp;P1;durP1;ratioP1;P2;durP2;ratioP2
35150;SDS011;55720;51.972;4.624;2023-09-08T00:00:37;27.53;;;20.17;;
35150;SDS011;55720;51.972;4.624;2023-09-08T00:03:02;25.47;;;20.00;;
35150;SDS011;55720;51.972;4.624;2023-09-08T00:05:27;32.50;;;20.90;;
35150;SDS011;55720;51.972;4.624;2023-09-08T00:07:53;29.00;;;21.67;;
35150;SDS011;55720;51.972;4.624;2023-09-08T00:10:18;28.40;;;21.15;;
35150;SDS011;55720;51.972;4.624;2023-09-08T00:12:43;28.87;;;20.73;;
35150;SDS011;55720;51.972;4.624;2023-09-08T00:15:09;33.17;;;22.50;;
35150;SDS011;55720;51.972;4.624;2023-09-08T00:17:34;28.63;;;20.95;;
35150;SDS011;55720;51.972;4.624;2023-09-08T00:20:01;27.80;;;20.27;;
35150;SDS011;55720;51.972;4.624;2023-09-08T00:22:26;30.53;;;21.67;;
35150;SDS011;55720;51.972;4.624;2023-09-08T00:24:51;26.97;;;21.33;;
35150;SDS011;55720;51.972;4.624;2023-09-08T00:27:17;28.93;;;20.37;;
35150;SDS011;55720;51.972;4.624;2023-09-08T00:29:42;30.37;;;21.00;;
35150;SDS011;55720;51.972;4.624;2023-09-08T00:32:07;31.70;;;21.57;;
35150;SDS011;55720;51.972;4.624;2023-09-08T00:34:32;31.90;;;20.77;;
35150;SDS011;55720;51.972;4.624;2023-09-08T00:36:57;31.37;;;21.83;;
35150;SDS011;55720;51.972;4.624;2023-09-08T00:39:23;30.27;;;21.90;;
35150;SDS011;55720;51.972;4.624;2023-09-08T00:41:48;34.50;;;21.30;;
35150;SDS011;55720;51.972;4.624;2023-09-08T00:44:13;32.13;;;21.20;;
35150;SDS011;55720;51.972;4.624;2023-09-08T00:46:39;30.58;;;21.55;;
35150;SDS011;55720;51.972;4.624;2023-09-08T00:49:04;32.95;;;22.15;;
35150;SDS011;55720;51.972;4.624;2023-09-08T00:51:30;32.08;;;22.15;;
35150;SDS011;55720;51.972;4.624;2023-09-08T00:53:55;31.25;;;21.25;;
35150;SDS011;55720;51.972;4.624;2023-09-08T00:56:21;34.47;;;21.60;;
35150;SDS011;55720;51.972;4.624;2023-09-08T00:58:47;29.95;;;22.63;;
35150;SDS011;55720;51.972;4.624;2023-09-08T01:01:12;32.60;;;22.77;;
35150;SDS011;55720;51.972;4.624;2023-09-08T01:03:37;32.40;;;23.63;;
35150;SDS011;55720;51.972;4.624;2023-09-08T01:06:03;33.80;;;22.65;;
35150;SDS011;55720;51.972;4.624;2023-09-08T01:08:28;31.55;;;22.38;;
35150;SDS011;55720;51.972;4.624;2023-09-08T01:10:54;34.47;;;22.75;;
35150;SDS011;55720;51.972;4.624;2023-09-08T01:13:19;33.08;;;21.73;;
35150;SDS011;55720;51.972;4.624;2023-09-08T01:15:44;31.97;;;22.80;;
35150;SDS011;55720;51.972;4.624;2023-09-08T01:18:10;34.47;;;23.03;;
35150;SDS011;55720;51.972;4.624;2023-09-08T01:21:26;33.97;;;22.92;;
35150;SDS011;55720;51.972;4.624;2023-09-08T01:28:26;33.13;;;22.67;;
35150;SDS011;55720;51.972;4.624;2023-09-08T01:30:53;35.55;;;23.83;;
35150;SDS011;55720;51.972;4.624;2023-09-08T01:33:19;35.05;;;24.42;;
35150;SDS011;55720;51.972;4.624;2023-09-08T01:35:44;33.58;;;22.98;;
35150;SDS011;55720;51.972;4.624;2023-09-08T01:38:10;38.63;;;24.48;;
35150;SDS011;55720;51.972;4.624;2023-09-08T01:40:35;34.67;;;23.08;;
35150;SDS011;55720;51.972;4.624;2023-09-08T01:43:00;30.47;;;21.47;;
35150;SDS011;55720;51.972;4.624;2023-09-08T01:45:26;30.77;;;21.77;;
35150;SDS011;55720;51.972;4.624;2023-09-08T01:47:51;33.13;;;23.13;;
35150;SDS011;55720;51.972;4.624;2023-09-08T01:50:16;30.40;;;22.10;;
35150;SDS011;55720;51.972;4.624;2023-09-08T01:55:11;30.43;;;20.97;;
35150;SDS011;55720;51.972;4.624;2023-09-08T01:57:37;33.22;;;22.38;;
35150;SDS011;55720;51.972;4.624;2023-09-08T02:00:02;36.50;;;23.90;;
35150;SDS011;55720;51.972;4.624;2023-09-08T02:02:27;31.17;;;21.95;;
35150;SDS011;55720;51.972;4.624;2023-09-08T02:04:52;29.63;;;21.80;;
35150;SDS011;55720;51.972;4.624;2023-09-08T02:07:18;34.20;;;22.57;;
35150;SDS011;55720;51.972;4.624;2023-09-08T02:09:44;33.00;;;23.00;;
35150;SDS011;55720;51.972;4.624;2023-09-08T02:12:10;29.75;;;20.77;;
35150;SDS011;55720;51.972;4.624;2023-09-08T02:14:35;31.10;;;21.27;;
35150;SDS011;55720;51.972;4.624;2023-09-08T02:17:00;34.27;;;21.53;;
35150;SDS011;55720;51.972;4.624;2023-09-08T02:19:25;31.20;;;21.63;;
35150;SDS011;55720;51.972;4.624;2023-09-08T02:21:50;35.50;;;23.20;;
35150;SDS011;55720;51.972;4.624;2023-09-08T02:24:16;32.30;;;23.57;;
35150;SDS011;55720;51.972;4.624;2023-09-08T02:26:41;33.10;;;23.57;;
35150;SDS011;55720;51.972;4.624;2023-09-08T02:29:06;35.22;;;24.85;;
35150;SDS011;55720;51.972;4.624;2023-09-08T02:31:32;40.40;;;24.65;;
35150;SDS011;55720;51.972;4.624;2023-09-08T02:33:57;35.17;;;23.75;;
35150;SDS011;55720;51.972;4.624;2023-09-08T02:36:23;37.80;;;24.60;;
35150;SDS011;55720;51.972;4.624;2023-09-08T02:38:52;36.05;;;24.40;;
35150;SDS011;55720;51.972;4.624;2023-09-08T02:41:17;38.22;;;24.52;;
35150;SDS011;55720;51.972;4.624;2023-09-08T02:43:42;35.75;;;24.23;;
35150;SDS011;55720;51.972;4.624;2023-09-08T02:46:07;35.33;;;24.47;;
35150;SDS011;55720;51.972;4.624;2023-09-08T02:48:34;35.38;;;23.88;;
35150;SDS011;55720;51.972;4.624;2023-09-08T02:50:59;35.88;;;23.95;;
35150;SDS011;55720;51.972;4.624;2023-09-08T02:53:25;36.17;;;23.60;;
35150;SDS011;55720;51.972;4.624;2023-09-08T02:55:53;35.88;;;24.30;;
35150;SDS011;55720;51.972;4.624;2023-09-08T02:58:18;38.93;;;24.83;;
35150;SDS011;55720;51.972;4.624;2023-09-08T03:00:43;36.20;;;23.30;;
35150;SDS011;55720;51.972;4.624;2023-09-08T03:03:09;34.63;;;22.87;;
35150;SDS011;55720;51.972;4.624;2023-09-08T03:05:34;33.33;;;22.70;;
35150;SDS011;55720;51.972;4.624;2023-09-08T03:07:59;34.35;;;22.40;;
35150;SDS011;55720;51.972;4.624;2023-09-08T03:10:24;40.50;;;25.17;;
35150;SDS011;55720;51.972;4.624;2023-09-08T03:12:50;37.53;;;25.33;;
35150;SDS011;55720;51.972;4.624;2023-09-08T03:15:15;36.53;;;24.13;;
35150;SDS011;55720;51.972;4.624;2023-09-08T03:17:40;33.27;;;23.00;;
35150;SDS011;55720;51.972;4.624;2023-09-08T03:20:05;37.70;;;23.43;;
35150;SDS011;55720;51.972;4.624;2023-09-08T03:22:32;37.85;;;24.38;;
35150;SDS011;55720;51.972;4.624;2023-09-08T03:24:57;35.67;;;23.20;;
35150;SDS011;55720;51.972;4.624;2023-09-08T03:27:23;34.88;;;24.15;;
35150;SDS011;55720;51.972;4.624;2023-09-08T03:29:48;39.05;;;24.30;;
35150;SDS011;55720;51.972;4.624;2023-09-08T03:32:13;35.13;;;23.37;;
35150;SDS011;55720;51.972;4.624;2023-09-08T03:34:38;36.35;;;22.30;;
35150;SDS011;55720;51.972;4.624;2023-09-08T03:37:04;31.98;;;21.88;;
35150;SDS011;55720;51.972;4.624;2023-09-08T03:39:30;32.63;;;22.70;;
35150;SDS011;55720;51.972;4.624;2023-09-08T03:41:55;33.90;;;22.83;;
35150;SDS011;55720;51.972;4.624;2023-09-08T03:44:20;35.80;;;22.20;;
35150;SDS011;55720;51.972;4.624;2023-09-08T03:46:45;35.90;;;23.40;;
35150;SDS011;55720;51.972;4.624;2023-09-08T03:49:10;32.08;;;21.55;;
35150;SDS011;55720;51.972;4.624;2023-09-08T03:51:36;32.00;;;21.77;;
35150;SDS011;55720;51.972;4.624;2023-09-08T03:54:01;30.73;;;21.60;;
35150;SDS011;55720;51.972;4.624;2023-09-08T03:56:28;35.70;;;21.85;;
35150;SDS011;55720;51.972;4.624;2023-09-08T03:58:53;35.63;;;21.47;;
35150;SDS011;55720;51.972;4.624;2023-09-08T04:01:18;33.07;;;21.90;;
35150;SDS011;55720;51.972;4.624;2023-09-08T04:03:43;34.90;;;22.07;;
35150;SDS011;55720;51.972;4.624;2023-09-08T04:06:08;35.37;;;21.33;;
35150;SDS011;55720;51.972;4.624;2023-09-08T04:08:34;29.42;;;20.83;;
35150;SDS011;55720;51.972;4.624;2023-09-08T04:10:59;25.83;;;19.47;;
35150;SDS011;55720;51.972;4.624;2023-09-08T04:13:24;29.90;;;18.93;;
35150;SDS011;55720;51.972;4.624;2023-09-08T04:15:50;28.75;;;19.42;;
35150;SDS011;55720;51.972;4.624;2023-09-08T04:18:15;36.53;;;21.80;;
35150;SDS011;55720;51.972;4.624;2023-09-08T04:20:40;30.93;;;21.83;;
35150;SDS011;55720;51.972;4.624;2023-09-08T04:23:06;30.10;;;21.38;;
35150;SDS011;55720;51.972;4.624;2023-09-08T04:25:31;31.63;;;22.07;;
35150;SDS011;55720;51.972;4.624;2023-09-08T04:27:56;31.87;;;21.60;;
35150;SDS011;55720;51.972;4.624;2023-09-08T04:30:21;32.45;;;21.42;;
35150;SDS011;55720;51.972;4.624;2023-09-08T04:32:46;27.50;;;20.40;;
35150;SDS011;55720;51.972;4.624;2023-09-08T04:35:12;27.13;;;20.17;;
35150;SDS011;55720;51.972;4.624;2023-09-08T04:37:37;30.47;;;20.40;;
35150;SDS011;55720;51.972;4.624;2023-09-08T04:40:03;33.15;;;20.92;;
35150;SDS011;55720;51.972;4.624;2023-09-08T04:42:29;32.05;;;20.95;;
35150;SDS011;55720;51.972;4.624;2023-09-08T04:44:54;38.28;;;20.52;;
35150;SDS011;55720;51.972;4.624;2023-09-08T04:47:20;29.17;;;20.90;;
35150;SDS011;55720;51.972;4.624;2023-09-08T04:49:45;34.88;;;20.42;;
35150;SDS011;55720;51.972;4.624;2023-09-08T04:52:10;31.00;;;20.20;;
35150;SDS011;55720;51.972;4.624;2023-09-08T04:54:36;31.38;;;20.80;;
35150;SDS011;55720;51.972;4.624;2023-09-08T04:57:01;31.40;;;20.70;;
35150;SDS011;55720;51.972;4.624;2023-09-08T04:59:27;30.50;;;21.67;;
35150;SDS011;55720;51.972;4.624;2023-09-08T05:01:52;38.47;;;23.10;;
35150;SDS011;55720;51.972;4.624;2023-09-08T05:04:18;31.87;;;20.90;;
35150;SDS011;55720;51.972;4.624;2023-09-08T05:06:43;36.67;;;21.83;;
35150;SDS011;55720;51.972;4.624;2023-09-08T05:09:09;35.28;;;21.55;;
35150;SDS011;55720;51.972;4.624;2023-09-08T05:11:34;38.67;;;23.10;;
35150;SDS011;55720;51.972;4.624;2023-09-08T05:13:59;32.67;;;20.75;;
35150;SDS011;55720;51.972;4.624;2023-09-08T05:16:24;40.93;;;21.63;;
35150;SDS011;55720;51.972;4.624;2023-09-08T05:19:04;30.75;;;20.10;;
35150;SDS011;55720;51.972;4.624;2023-09-08T05:21:30;40.95;;;23.20;;
35150;SDS011;55720;51.972;4.624;2023-09-08T05:23:55;36.33;;;22.08;;
35150;SDS011;55720;51.972;4.624;2023-09-08T05:26:21;37.23;;;21.63;;
35150;SDS011;55720;51.972;4.624;2023-09-08T05:28:46;32.90;;;21.63;;
35150;SDS011;55720;51.972;4.624;2023-09-08T05:31:11;29.17;;;20.43;;
35150;SDS011;55720;51.972;4.624;2023-09-08T05:33:36;37.25;;;20.35;;
35150;SDS011;55720;51.972;4.624;2023-09-08T05:36:02;30.03;;;21.10;;
35150;SDS011;55720;51.972;4.624;2023-09-08T05:38:27;40.30;;;23.85;;
35150;SDS011;55720;51.972;4.624;2023-09-08T05:40:53;30.58;;;21.58;;
35150;SDS011;55720;51.972;4.624;2023-09-08T05:43:19;33.03;;;22.37;;
35150;SDS011;55720;51.972;4.624;2023-09-08T05:45:44;30.35;;;20.85;;
35150;SDS011;55720;51.972;4.624;2023-09-08T05:48:09;31.20;;;21.10;;
35150;SDS011;55720;51.972;4.624;2023-09-08T05:50:34;31.90;;;20.27;;
35150;SDS011;55720;51.972;4.624;2023-09-08T05:52:59;28.80;;;21.47;;
35150;SDS011;55720;51.972;4.624;2023-09-08T05:55:25;31.90;;;20.83;;
35150;SDS011;55720;51.972;4.624;2023-09-08T05:57:50;35.03;;;20.27;;
35150;SDS011;55720;51.972;4.624;2023-09-08T06:00:15;31.05;;;20.48;;
35150;SDS011;55720;51.972;4.624;2023-09-08T06:02:41;28.50;;;20.25;;
35150;SDS011;55720;51.972;4.624;2023-09-08T06:05:06;30.47;;;19.77;;
35150;SDS011;55720;51.972;4.624;2023-09-08T06:07:31;29.02;;;19.42;;
35150;SDS011;55720;51.972;4.624;2023-09-08T06:09:56;28.23;;;19.03;;
35150;SDS011;55720;51.972;4.624;2023-09-08T06:12:22;30.13;;;18.60;;
35150;SDS011;55720;51.972;4.624;2023-09-08T06:14:47;30.17;;;20.00;;
35150;SDS011;55720;51.972;4.624;2023-09-08T06:17:12;23.10;;;18.13;;
35150;SDS011;55720;51.972;4.624;2023-09-08T06:19:37;29.67;;;18.20;;
35150;SDS011;55720;51.972;4.624;2023-09-08T06:22:03;25.40;;;17.77;;
35150;SDS011;55720;51.972;4.624;2023-09-08T06:24:28;23.65;;;18.10;;
35150;SDS011;55720;51.972;4.624;2023-09-08T06:26:53;25.02;;;17.70;;
35150;SDS011;55720;51.972;4.624;2023-09-08T06:29:18;27.00;;;18.07;;
35150;SDS011;55720;51.972;4.624;2023-09-08T06:31:43;23.53;;;16.60;;
35150;SDS011;55720;51.972;4.624;2023-09-08T06:34:09;21.40;;;16.63;;
35150;SDS011;55720;51.972;4.624;2023-09-08T06:36:34;21.97;;;16.07;;
35150;SDS011;55720;51.972;4.624;2023-09-08T06:38:59;25.80;;;15.27;;
35150;SDS011;55720;51.972;4.624;2023-09-08T06:41:24;16.80;;;12.65;;
35150;SDS011;55720;51.972;4.624;2023-09-08T06:43:52;19.63;;;13.27;;
35150;SDS011;55720;51.972;4.624;2023-09-08T06:46:17;16.77;;;12.73;;
35150;SDS011;55720;51.972;4.624;2023-09-08T06:48:42;16.47;;;12.57;;
35150;SDS011;55720;51.972;4.624;2023-09-08T06:51:07;17.90;;;13.70;;
35150;SDS011;55720;51.972;4.624;2023-09-08T06:53:33;16.17;;;13.20;;
35150;SDS011;55720;51.972;4.624;2023-09-08T06:55:58;19.48;;;13.55;;
35150;SDS011;55720;51.972;4.624;2023-09-08T06:58:23;16.57;;;13.53;;
35150;SDS011;55720;51.972;4.624;2023-09-08T07:00:49;20.73;;;13.33;;
35150;SDS011;55720;51.972;4.624;2023-09-08T07:03:15;19.70;;;14.38;;
35150;SDS011;55720;51.972;4.624;2023-09-08T07:05:40;22.70;;;15.17;;
35150;SDS011;55720;51.972;4.624;2023-09-08T07:08:06;24.80;;;14.93;;
35150;SDS011;55720;51.972;4.624;2023-09-08T07:10:31;17.90;;;14.15;;
35150;SDS011;55720;51.972;4.624;2023-09-08T07:12:56;22.73;;;15.32;;
35150;SDS011;55720;51.972;4.624;2023-09-08T07:15:22;26.70;;;15.67;;
35150;SDS011;55720;51.972;4.624;2023-09-08T07:17:47;19.43;;;15.47;;
35150;SDS011;55720;51.972;4.624;2023-09-08T07:20:12;19.70;;;15.47;;
35150;SDS011;55720;51.972;4.624;2023-09-08T07:22:37;22.20;;;15.27;;
35150;SDS011;55720;51.972;4.624;2023-09-08T07:25:03;19.90;;;14.60;;
35150;SDS011;55720;51.972;4.624;2023-09-08T07:27:28;19.80;;;14.50;;
35150;SDS011;55720;51.972;4.624;2023-09-08T07:29:53;22.03;;;15.27;;
35150;SDS011;55720;51.972;4.624;2023-09-08T07:32:19;21.67;;;15.10;;
35150;SDS011;55720;51.972;4.624;2023-09-08T07:34:44;18.63;;;14.55;;
35150;SDS011;55720;51.972;4.624;2023-09-08T07:37:09;17.90;;;14.32;;
35150;SDS011;55720;51.972;4.624;2023-09-08T07:39:34;19.27;;;15.48;;
35150;SDS011;55720;51.972;4.624;2023-09-08T07:42:00;18.40;;;14.75;;
35150;SDS011;55720;51.972;4.624;2023-09-08T07:44:25;22.13;;;15.95;;
35150;SDS011;55720;51.972;4.624;2023-09-08T07:46:51;22.77;;;16.02;;
35150;SDS011;55720;51.972;4.624;2023-09-08T07:49:16;19.20;;;16.27;;
35150;SDS011;55720;51.972;4.624;2023-09-08T07:51:44;20.77;;;16.27;;
35150;SDS011;55720;51.972;4.624;2023-09-08T07:54:09;26.23;;;16.55;;
35150;SDS011;55720;51.972;4.624;2023-09-08T07:56:34;18.02;;;14.70;;
35150;SDS011;55720;51.972;4.624;2023-09-08T07:58:59;20.70;;;16.63;;
35150;SDS011;55720;51.972;4.624;2023-09-08T08:01:25;23.17;;;16.83;;
35150;SDS011;55720;51.972;4.624;2023-09-08T08:03:50;24.77;;;16.97;;
35150;SDS011;55720;51.972;4.624;2023-09-08T08:06:15;22.83;;;17.33;;
35150;SDS011;55720;51.972;4.624;2023-09-08T08:08:40;21.53;;;17.70;;
35150;SDS011;55720;51.972;4.624;2023-09-08T08:11:12;23.33;;;17.27;;
35150;SDS011;55720;51.972;4.624;2023-09-08T08:13:37;21.42;;;16.25;;
35150;SDS011;55720;51.972;4.624;2023-09-08T08:16:02;23.53;;;16.73;;
35150;SDS011;55720;51.972;4.624;2023-09-08T08:18:28;22.90;;;16.55;;
35150;SDS011;55720;51.972;4.624;2023-09-08T08:20:53;24.67;;;15.40;;
35150;SDS011;55720;51.972;4.624;2023-09-08T08:23:18;20.70;;;14.83;;
35150;SDS011;55720;51.972;4.624;2023-09-08T08:25:43;18.40;;;14.60;;
35150;SDS011;55720;51.972;4.624;2023-09-08T08:28:09;16.50;;;13.30;;
35150;SDS011;55720;51.972;4.624;2023-09-08T08:30:34;19.97;;;13.73;;
35150;SDS011;55720;51.972;4.624;2023-09-08T08:33:00;19.92;;;13.05;;
35150;SDS011;55720;51.972;4.624;2023-09-08T08:35:25;15.23;;;13.47;;
35150;SDS011;55720;51.972;4.624;2023-09-08T08:37:50;17.77;;;13.23;;
35150;SDS011;55720;51.972;4.624;2023-09-08T08:40:16;24.17;;;13.03;;
35150;SDS011;55720;51.972;4.624;2023-09-08T08:42:41;16.47;;;11.67;;
35150;SDS011;55720;51.972;4.624;2023-09-08T08:45:07;14.93;;;12.52;;
35150;SDS011;55720;51.972;4.624;2023-09-08T08:47:32;14.38;;;11.80;;
35150;SDS011;55720;51.972;4.624;2023-09-08T08:49:58;16.17;;;12.60;;
35150;SDS011;55720;51.972;4.624;2023-09-08T08:52:24;14.05;;;12.10;;
35150;SDS011;55720;51.972;4.624;2023-09-08T08:54:50;16.02;;;11.55;;
35150;SDS011;55720;51.972;4.624;2023-09-08T08:57:15;18.17;;;12.93;;
35150;SDS011;55720;51.972;4.624;2023-09-08T08:59:41;15.85;;;13.73;;
35150;SDS011;55720;51.972;4.624;2023-09-08T09:02:09;14.05;;;12.35;;
35150;SDS011;55720;51.972;4.624;2023-09-08T09:04:36;13.77;;;12.25;;
35150;SDS011;55720;51.972;4.624;2023-09-08T09:07:02;16.23;;;12.98;;
35150;SDS011;55720;51.972;4.624;2023-09-08T09:09:27;16.75;;;12.93;;
35150;SDS011;55720;51.972;4.624;2023-09-08T09:11:53;19.02;;;12.60;;
35150;SDS011;55720;51.972;4.624;2023-09-08T09:14:18;16.40;;;13.50;;
35150;SDS011;55720;51.972;4.624;2023-09-08T09:16:44;17.35;;;12.63;;
35150;SDS011;55720;51.972;4.624;2023-09-08T09:19:10;19.52;;;13.63;;
35150;SDS011;55720;51.972;4.624;2023-09-08T09:21:45;16.58;;;13.25;;
35150;SDS011;55720;51.972;4.624;2023-09-08T09:24:27;17.05;;;13.02;;
35150;SDS011;55720;51.972;4.624;2023-09-08T09:26:53;18.13;;;13.50;;
35150;SDS011;55720;51.972;4.624;2023-09-08T09:29:18;16.85;;;14.07;;
35150;SDS011;55720;51.972;4.624;2023-09-08T09:31:50;15.60;;;12.70;;
35150;SDS011;55720;51.972;4.624;2023-09-08T09:34:17;17.15;;;12.95;;
35150;SDS011;55720;51.972;4.624;2023-09-08T09:36:42;14.90;;;12.13;;
35150;SDS011;55720;51.972;4.624;2023-09-08T09:39:07;13.80;;;11.43;;
35150;SDS011;55720;51.972;4.624;2023-09-08T09:41:33;14.77;;;12.03;;
35150;SDS011;55720;51.972;4.624;2023-09-08T09:43:58;17.98;;;12.60;;
35150;SDS011;55720;51.972;4.624;2023-09-08T09:46:23;16.10;;;12.07;;
35150;SDS011;55720;51.972;4.624;2023-09-08T09:48:55;17.98;;;12.43;;
35150;SDS011;55720;51.972;4.624;2023-09-08T09:51:23;14.90;;;13.00;;
35150;SDS011;55720;51.972;4.624;2023-09-08T09:53:51;21.77;;;13.40;;
35150;SDS011;55720;51.972;4.624;2023-09-08T09:56:17;14.18;;;12.63;;
35150;SDS011;55720;51.972;4.624;2023-09-08T09:58:42;13.50;;;11.40;;
35150;SDS011;55720;51.972;4.624;2023-09-08T10:01:07;12.43;;;9.60;;
35150;SDS011;55720;51.972;4.624;2023-09-08T10:03:33;12.10;;;9.88;;
35150;SDS011;55720;51.972;4.624;2023-09-08T10:05:58;13.00;;;10.88;;
35150;SDS011;55720;51.972;4.624;2023-09-08T10:08:24;18.95;;;10.63;;
35150;SDS011;55720;51.972;4.624;2023-09-08T10:10:49;11.07;;;9.98;;
35150;SDS011;55720;51.972;4.624;2023-09-08T10:13:17;11.98;;;10.20;;
35150;SDS011;55720;51.972;4.624;2023-09-08T10:15:43;13.15;;;9.82;;
35150;SDS011;55720;51.972;4.624;2023-09-08T10:18:09;13.38;;;10.40;;
35150;SDS011;55720;51.972;4.624;2023-09-08T10:20:39;13.98;;;9.20;;
35150;SDS011;55720;51.972;4.624;2023-09-08T10:23:12;10.50;;;7.90;;
35150;SDS011;55720;51.972;4.624;2023-09-08T10:25:44;13.02;;;8.05;;
35150;SDS011;55720;51.972;4.624;2023-09-08T10:28:12;7.13;;;6.43;;
35150;SDS011;55720;51.972;4.624;2023-09-08T10:30:37;7.70;;;5.95;;
35150;SDS011;55720;51.972;4.624;2023-09-08T10:33:03;6.20;;;5.60;;
35150;SDS011;55720;51.972;4.624;2023-09-08T10:35:29;8.50;;;6.82;;
35150;SDS011;55720;51.972;4.624;2023-09-08T10:40:38;6.97;;;6.38;;
35150;SDS011;55720;51.972;4.624;2023-09-08T10:43:07;8.27;;;5.20;;
35150;SDS011;55720;51.972;4.624;2023-09-08T10:45:32;6.68;;;5.50;;
35150;SDS011;55720;51.972;4.624;2023-09-08T10:47:58;6.80;;;5.25;;
35150;SDS011;55720;51.972;4.624;2023-09-08T10:50:27;5.90;;;4.85;;
35150;SDS011;55720;51.972;4.624;2023-09-08T10:53:04;5.82;;;5.20;;
35150;SDS011;55720;51.972;4.624;2023-09-08T10:55:36;6.97;;;5.05;;
35150;SDS011;55720;51.972;4.624;2023-09-08T10:58:01;6.03;;;5.53;;
35150;SDS011;55720;51.972;4.624;2023-09-08T11:00:28;8.75;;;5.13;;
35150;SDS011;55720;51.972;4.624;2023-09-08T11:03:07;7.38;;;5.07;;
35150;SDS011;55720;51.972;4.624;2023-09-08T11:05:32;6.03;;;5.22;;
35150;SDS011;55720;51.972;4.624;2023-09-08T11:07:58;5.60;;;4.70;;
35150;SDS011;55720;51.972;4.624;2023-09-08T11:10:24;5.15;;;4.63;;
35150;SDS011;55720;51.972;4.624;2023-09-08T11:12:49;10.20;;;5.80;;
35150;SDS011;55720;51.972;4.624;2023-09-08T11:15:16;5.15;;;4.65;;
35150;SDS011;55720;51.972;4.624;2023-09-08T11:17:41;6.03;;;4.88;;
35150;SDS011;55720;51.972;4.624;2023-09-08T11:20:07;5.57;;;4.82;;
35150;SDS011;55720;51.972;4.624;2023-09-08T11:22:34;7.25;;;5.10;;
35150;SDS011;55720;51.972;4.624;2023-09-08T11:24:59;9.73;;;5.78;;
35150;SDS011;55720;51.972;4.624;2023-09-08T11:27:25;4.95;;;4.55;;
35150;SDS011;55720;51.972;4.624;2023-09-08T11:29:51;5.75;;;5.25;;
35150;SDS011;55720;51.972;4.624;2023-09-08T11:32:17;5.80;;;5.30;;
35150;SDS011;55720;51.972;4.624;2023-09-08T11:34:42;5.90;;;5.40;;
35150;SDS011;55720;51.972;4.624;2023-09-08T11:37:10;6.47;;;5.87;;
35150;SDS011;55720;51.972;4.624;2023-09-08T11:39:38;7.72;;;5.20;;
35150;SDS011;55720;51.972;4.624;2023-09-08T11:42:03;5.47;;;4.97;;
35150;SDS011;55720;51.972;4.624;2023-09-08T11:44:29;5.93;;;5.40;;
35150;SDS011;55720;51.972;4.624;2023-09-08T11:46:54;6.43;;;5.67;;
35150;SDS011;55720;51.972;4.624;2023-09-08T11:49:19;7.07;;;5.97;;
35150;SDS011;55720;51.972;4.624;2023-09-08T11:51:45;6.72;;;5.95;;
35150;SDS011;55720;51.972;4.624;2023-09-08T11:54:10;7.28;;;5.60;;
35150;SDS011;55720;51.972;4.624;2023-09-08T11:56:36;6.20;;;5.70;;
35150;SDS011;55720;51.972;4.624;2023-09-08T11:59:02;6.82;;;6.10;;
35150;SDS011;55720;51.972;4.624;2023-09-08T12:01:28;6.97;;;5.30;;
35150;SDS011;55720;51.972;4.624;2023-09-08T12:03:56;6.63;;;6.05;;
35150;SDS011;55720;51.972;4.624;2023-09-08T12:06:32;6.15;;;5.35;;
35150;SDS011;55720;51.972;4.624;2023-09-08T12:09:00;6.60;;;6.10;;
35150;SDS011;55720;51.972;4.624;2023-09-08T12:11:31;6.97;;;6.35;;
35150;SDS011;55720;51.972;4.624;2023-09-08T12:14:00;6.72;;;6.20;;
35150;SDS011;55720;51.972;4.624;2023-09-08T12:16:26;10.20;;;6.40;;
35150;SDS011;55720;51.972;4.624;2023-09-08T12:18:51;6.00;;;5.37;;
35150;SDS011;55720;51.972;4.624;2023-09-08T12:21:16;7.40;;;6.20;;
35150;SDS011;55720;51.972;4.624;2023-09-08T12:23:48;11.68;;;6.07;;
35150;SDS011;55720;51.972;4.624;2023-09-08T12:26:14;9.02;;;6.60;;
35150;SDS011;55720;51.972;4.624;2023-09-08T12:28:39;8.13;;;5.93;;
35150;SDS011;55720;51.972;4.624;2023-09-08T12:31:04;9.77;;;7.03;;
35150;SDS011;55720;51.972;4.624;2023-09-08T12:33:30;7.70;;;6.57;;
35150;SDS011;55720;51.972;4.624;2023-09-08T12:35:55;7.40;;;6.57;;
35150;SDS011;55720;51.972;4.624;2023-09-08T12:38:20;9.20;;;7.30;;
35150;SDS011;55720;51.972;4.624;2023-09-08T12:40:45;8.23;;;7.43;;
35150;SDS011;55720;51.972;4.624;2023-09-08T12:43:11;7.03;;;6.40;;
35150;SDS011;55720;51.972;4.624;2023-09-08T12:45:36;3.67;;;3.27;;
35150;SDS011;55720;51.972;4.624;2023-09-08T12:48:01;4.77;;;3.67;;
35150;SDS011;55720;51.972;4.624;2023-09-08T12:50:27;3.88;;;3.25;;
35150;SDS011;55720;51.972;4.624;2023-09-08T12:52:53;3.58;;;3.28;;
35150;SDS011;55720;51.972;4.624;2023-09-08T12:55:18;6.47;;;3.97;;
35150;SDS011;55720;51.972;4.624;2023-09-08T12:57:43;4.07;;;3.63;;
35150;SDS011;55720;51.972;4.624;2023-09-08T13:00:09;4.50;;;4.10;;
35150;SDS011;55720;51.972;4.624;2023-09-08T13:02:34;6.93;;;3.53;;
35150;SDS011;55720;51.972;4.624;2023-09-08T13:05:00;4.03;;;3.42;;
35150;SDS011;55720;51.972;4.624;2023-09-08T13:07:26;4.88;;;4.00;;
35150;SDS011;55720;51.972;4.624;2023-09-08T13:09:51;5.18;;;3.50;;
35150;SDS011;55720;51.972;4.624;2023-09-08T13:12:16;4.67;;;3.90;;
35150;SDS011;55720;51.972;4.624;2023-09-08T13:14:42;5.67;;;3.37;;
35150;SDS011;55720;51.972;4.624;2023-09-08T13:17:08;3.78;;;3.38;;
35150;SDS011;55720;51.972;4.624;2023-09-08T13:19:33;4.38;;;3.05;;
35150;SDS011;55720;51.972;4.624;2023-09-08T13:21:59;4.90;;;3.50;;
35150;SDS011;55720;51.972;4.624;2023-09-08T13:24:24;4.47;;;3.63;;
35150;SDS011;55720;51.972;4.624;2023-09-08T13:26:49;3.50;;;3.13;;
35150;SDS011;55720;51.972;4.624;2023-09-08T13:29:15;5.40;;;3.73;;
35150;SDS011;55720;51.972;4.624;2023-09-08T13:31:41;5.30;;;3.22;;
35150;SDS011;55720;51.972;4.624;2023-09-08T13:34:06;4.07;;;3.70;;
35150;SDS011;55720;51.972;4.624;2023-09-08T13:36:31;12.47;;;4.33;;
35150;SDS011;55720;51.972;4.624;2023-09-08T13:38:57;7.32;;;3.60;;
35150;SDS011;55720;51.972;4.624;2023-09-08T13:41:23;4.00;;;3.60;;
35150;SDS011;55720;51.972;4.624;2023-09-08T13:43:48;3.90;;;3.33;;
35150;SDS011;55720;51.972;4.624;2023-09-08T13:46:13;4.13;;;3.70;;
35150;SDS011;55720;51.972;4.624;2023-09-08T13:48:39;3.20;;;3.00;;
35150;SDS011;55720;51.972;4.624;2023-09-08T13:51:04;5.60;;;3.20;;
35150;SDS011;55720;51.972;4.624;2023-09-08T13:53:29;3.93;;;3.33;;
35150;SDS011;55720;51.972;4.624;2023-09-08T13:55:58;2.90;;;2.70;;
35150;SDS011;55720;51.972;4.624;2023-09-08T13:58:23;3.70;;;3.50;;
35150;SDS011;55720;51.972;4.624;2023-09-08T14:00:48;3.70;;;3.40;;
35150;SDS011;55720;51.972;4.624;2023-09-08T14:03:14;3.58;;;2.80;;
35150;SDS011;55720;51.972;4.624;2023-09-08T14:05:39;3.83;;;3.05;;
35150;SDS011;55720;51.972;4.624;2023-09-08T14:08:05;3.97;;;3.20;;
35150;SDS011;55720;51.972;4.624;2023-09-08T14:10:30;3.28;;;2.95;;
35150;SDS011;55720;51.972;4.624;2023-09-08T14:12:55;7.30;;;3.10;;
35150;SDS011;55720;51.972;4.624;2023-09-08T14:15:20;5.87;;;3.33;;
35150;SDS011;55720;51.972;4.624;2023-09-08T14:17:46;3.07;;;2.80;;
35150;SDS011;55720;51.972;4.624;2023-09-08T14:20:11;5.30;;;2.87;;
35150;SDS011;55720;51.972;4.624;2023-09-08T14:22:36;7.38;;;3.40;;
35150;SDS011;55720;51.972;4.624;2023-09-08T14:25:02;3.78;;;2.78;;
35150;SDS011;55720;51.972;4.624;2023-09-08T14:27:28;3.10;;;2.83;;
35150;SDS011;55720;51.972;4.624;2023-09-08T14:29:53;3.20;;;2.90;;